Time;durP1;ratioP1;P1;durP2;ratioP2;P2;SDS_P1;SDS_P2;PMS_P1;PMS_P2;Temp;Humidity;BMP_temperature;BMP_pressure;BME280_temperature;BME280_humidity;BME280_pressure;Samples;Min_cycle;Max_cycle;Signal;HPM_P1;HPM_P2
2022/03/10 00:01:07;;;;;;;10.60;5.47;;;;;;;4.83;100.00;102657.25;10161502;28;20054;-68
2022/03/10 00:06:03;;;;;;;11.80;6.07;;;;;;;4.80;100.00;102660.44;10160600;28;20051;-68
2022/03/10 00:11:00;;;;;;;10.15;5.30;;;;;;;4.57;100.00;102663.06;10155360;28;20073;-68
2022/03/10 00:15:57;;;;;;;11.23;5.35;;;;;;;4.55;100.00;102659.75;10142348;28;20415;-67
2022/03/10 00:20:54;;;;;;;11.02;5.75;;;;;;;4.55;100.00;102659.75;10146022;28;20042;-68
2022/03/10 00:25:50;;;;;;;12.75;6.15;;;;;;;4.59;100.00;102669.06;10135893;28;20097;-69
2022/03/10 00:30:47;;;;;;;10.95;6.00;;;;;;;4.57;100.00;102673.88;10146002;28;20089;-67
2022/03/10 00:35:43;;;;;;;11.95;5.72;;;;;;;4.50;100.00;102684.00;10131868;28;20524;-67
2022/03/10 00:40:40;;;;;;;13.05;5.97;;;;;;;4.45;100.00;102689.28;10138853;28;20050;-67
2022/03/10 00:45:37;;;;;;;11.00;5.28;;;;;;;4.35;100.00;102693.34;10136636;28;20082;-67
2022/03/10 00:50:33;;;;;;;10.10;5.45;;;;;;;4.36;100.00;102692.31;10143380;28;20054;-67
2022/03/10 00:55:30;;;;;;;9.40;5.50;;;;;;;4.30;100.00;102693.22;10133347;28;20043;-68
2022/03/10 01:00:28;;;;;;;10.45;5.82;;;;;;;4.23;100.00;102689.75;10136392;28;20170;-67
2022/03/10 01:05:25;;;;;;;13.95;6.20;;;;;;;4.15;100.00;102699.00;10134800;28;20049;-67
2022/03/10 01:10:21;;;;;;;13.38;5.88;;;;;;;4.11;100.00;102688.88;10140042;28;26608;-67
2022/03/10 01:15:21;;;;;;;11.93;6.15;;;;;;;3.99;100.00;102689.63;10139945;28;20129;-67
2022/03/10 01:20:20;;;;;;;11.32;5.63;;;;;;;3.90;100.00;102680.16;10145827;28;20116;-68
2022/03/10 01:25:18;;;;;;;12.00;6.35;;;;;;;3.82;100.00;102683.13;10136062;28;20046;-66
2022/03/10 01:30:15;;;;;;;12.20;5.95;;;;;;;3.71;100.00;102670.34;10151111;28;20058;-66
2022/03/10 01:35:14;;;;;;;10.00;5.32;;;;;;;3.65;100.00;102682.06;10139633;28;20145;-65
2022/03/10 01:40:13;;;;;;;13.27;6.70;;;;;;;3.56;100.00;102685.03;10135757;28;20712;-65
2022/03/10 01:45:11;;;;;;;12.30;6.32;;;;;;;3.46;100.00;102684.75;10139433;28;20089;-69
2022/03/10 01:50:10;;;;;;;10.90;5.80;;;;;;;3.41;100.00;102689.13;10134893;28;20054;-70
2022/03/10 01:55:08;;;;;;;11.77;7.13;;;;;;;3.37;100.00;102691.47;10143962;28;20066;-68
2022/03/10 02:00:06;;;;;;;13.68;6.00;;;;;;;3.23;100.00;102696.16;10141969;28;20077;-67
2022/03/10 02:05:03;;;;;;;10.77;6.13;;;;;;;3.14;100.00;102684.78;10147250;28;20078;-67
2022/03/10 02:10:18;;;;;;;10.60;6.03;;;;;;;3.13;100.00;102688.53;10156036;28;20058;-66
2022/03/10 02:20:40;;;;;;;12.00;6.10;;;;;;;2.99;100.00;102689.66;10148853;28;20077;-68
2022/03/10 02:25:37;;;;;;;14.25;6.65;;;;;;;2.93;100.00;102682.44;10131636;28;20668;-67
2022/03/10 02:30:35;;;;;;;14.05;7.72;;;;;;;2.88;100.00;102676.88;10135214;28;20134;-68
2022/03/10 02:35:32;;;;;;;14.35;7.47;;;;;;;2.86;100.00;102685.19;10146935;28;20108;-68
2022/03/10 02:40:29;;;;;;;15.90;8.20;;;;;;;2.80;100.00;102685.22;10148695;28;20108;-68
2022/03/10 02:45:26;;;;;;;14.07;7.65;;;;;;;2.71;100.00;102690.88;10138476;28;20062;-68
2022/03/10 02:50:23;;;;;;;12.93;6.75;;;;;;;2.69;100.00;102690.28;10145328;28;20062;-68
2022/03/10 02:55:20;;;;;;;12.45;7.03;;;;;;;2.65;100.00;102691.75;10119700;28;20055;-66
2022/03/10 03:00:18;;;;;;;14.48;7.20;;;;;;;2.64;100.00;102695.50;10136135;28;20054;-67
2022/03/10 03:05:14;;;;;;;15.48;7.10;;;;;;;2.56;100.00;102690.34;10154078;28;20043;-68
2022/03/10 03:10:12;;;;;;;12.38;7.03;;;;;;;2.49;100.00;102694.97;10139955;28;20920;-68
2022/03/10 03:15:09;;;;;;;13.48;8.30;;;;;;;2.46;100.00;102689.97;10137100;28;20073;-66
2022/03/10 03:20:06;;;;;;;13.05;7.22;;;;;;;2.29;100.00;102689.63;10147223;28;20216;-68
2022/03/10 03:25:03;;;;;;;14.18;7.40;;;;;;;2.29;100.00;102703.94;10144251;28;20133;-69
2022/03/10 03:30:00;;;;;;;13.50;7.22;;;;;;;2.22;100.00;102708.56;10148838;28;20549;-69
2022/03/10 03:34:56;;;;;;;12.73;6.80;;;;;;;2.23;100.00;102707.53;10136115;28;20077;-69
2022/03/10 03:39:53;;;;;;;14.45;7.95;;;;;;;2.19;100.00;102717.09;10143939;28;20097;-69
2022/03/10 03:44:49;;;;;;;12.63;6.53;;;;;;;2.20;100.00;102720.59;10142763;28;20133;-67
2022/03/10 03:49:46;;;;;;;15.27;7.72;;;;;;;2.07;100.00;102729.59;10143292;28;20077;-68
2022/03/10 03:54:42;;;;;;;13.70;7.70;;;;;;;2.09;100.00;102728.31;10144621;28;20478;-68
2022/03/10 03:59:39;;;;;;;13.90;8.00;;;;;;;2.13;100.00;102734.13;10151261;28;20097;-69
2022/03/10 04:04:36;;;;;;;13.50;7.65;;;;;;;2.05;100.00;102745.97;10147262;28;20106;-68
2022/03/10 04:09:32;;;;;;;12.85;7.30;;;;;;;2.01;100.00;102735.81;10139588;28;20074;-68
2022/03/10 04:14:29;;;;;;;14.93;8.25;;;;;;;1.95;100.00;102742.03;10143497;28;20046;-68
2022/03/10 04:19:25;;;;;;;14.45;7.50;;;;;;;2.00;100.00;102747.66;10147220;28;20066;-68
2022/03/10 04:24:22;;;;;;;14.50;7.78;;;;;;;1.97;100.00;102745.34;10140898;28;20872;-68
2022/03/10 04:29:18;;;;;;;14.25;7.72;;;;;;;1.85;100.00;102743.31;10141434;28;20134;-67
2022/03/10 04:34:15;;;;;;;14.35;8.25;;;;;;;1.89;100.00;102744.53;10138778;28;20038;-68
2022/03/10 04:39:11;;;;;;;16.48;8.68;;;;;;;1.96;100.00;102759.91;10116016;28;20102;-68
2022/03/10 04:44:08;;;;;;;15.68;8.95;;;;;;;1.93;100.00;102765.69;10139825;28;20133;-69
2022/03/10 04:49:05;;;;;;;15.95;8.73;;;;;;;1.84;100.00;102757.84;10150835;28;20568;-68
2022/03/10 04:54:03;;;;;;;15.80;8.55;;;;;;;1.81;100.00;102769.06;10152032;28;20031;-67
2022/03/10 04:58:59;;;;;;;16.80;8.80;;;;;;;1.79;100.00;102781.91;10152487;28;20496;-68
2022/03/10 05:03:58;;;;;;;15.50;8.93;;;;;;;1.79;100.00;102775.69;10141707;28;20043;-67
2022/03/10 05:08:56;;;;;;;19.77;8.55;;;;;;;1.70;100.00;102775.06;10126490;28;20043;-67
2022/03/10 05:13:52;;;;;;;14.20;8.02;;;;;;;1.66;100.00;102776.53;10132851;28;20081;-68
2022/03/10 05:18:49;;;;;;;18.95;10.60;;;;;;;1.58;100.00;102768.63;10131902;28;20061;-67
2022/03/10 05:23:45;;;;;;;15.18;8.10;;;;;;;1.51;100.00;102768.66;10128611;28;20088;-68
2022/03/10 05:28:42;;;;;;;16.20;9.13;;;;;;;1.53;100.00;102768.41;10126380;28;20752;-68
2022/03/10 05:33:38;;;;;;;17.33;9.02;;;;;;;1.49;100.00;102772.59;10140314;28;20069;-67
2022/03/10 05:38:35;;;;;;;17.35;9.90;;;;;;;1.46;100.00;102761.19;10140349;28;20050;-67
2022/03/10 05:43:32;;;;;;;18.23;10.80;;;;;;;1.47;100.00;102762.81;10150912;28;20101;-68
2022/03/10 05:48:30;;;;;;;18.85;9.82;;;;;;;1.58;100.00;102774.00;10138877;28;20073;-66
2022/03/10 05:53:26;;;;;;;16.90;8.48;;;;;;;1.62;100.00;102769.88;10124599;28;20046;-65
2022/03/10 05:58:23;;;;;;;16.33;8.73;;;;;;;1.64;100.00;102770.50;10122458;28;20046;-68
2022/03/10 06:03:20;;;;;;;18.02;9.90;;;;;;;1.58;100.00;102774.00;10127551;28;20081;-67
2022/03/10 06:08:17;;;;;;;18.35;10.40;;;;;;;1.57;100.00;102785.84;10131486;28;20050;-67
2022/03/10 06:13:14;;;;;;;15.50;8.85;;;;;;;1.58;100.00;102784.81;10128478;28;20071;-67
2022/03/10 06:18:10;;;;;;;21.45;10.90;;;;;;;1.56;100.00;102789.59;10126915;28;20042;-67
2022/03/10 06:23:07;;;;;;;19.90;9.95;;;;;;;1.57;100.00;102793.94;10142381;28;20145;-67
2022/03/10 06:28:04;;;;;;;24.45;10.52;;;;;;;1.55;100.00;102801.41;10141072;28;20097;-67
2022/03/10 06:33:01;;;;;;;22.25;10.63;;;;;;;1.60;100.00;102801.59;10147808;28;20039;-67
2022/03/10 06:37:57;;;;;;;19.15;10.48;;;;;;;1.60;100.00;102805.16;10120320;28;20055;-67
2022/03/10 06:42:55;;;;;;;27.00;10.38;;;;;;;1.62;100.00;102813.84;10113563;28;20089;-68
2022/03/10 06:47:51;;;;;;;18.60;10.60;;;;;;;1.68;100.00;102823.00;10128534;28;20078;-67
2022/03/10 06:52:48;;;;;;;18.67;9.73;;;;;;;1.75;100.00;102817.59;10113640;28;20078;-68
2022/03/10 06:57:46;;;;;;;25.70;11.30;;;;;;;1.74;100.00;102824.88;10128815;28;20081;-67
2022/03/10 07:02:43;;;;;;;18.25;10.85;;;;;;;1.86;100.00;102836.69;10112972;28;20142;-67
2022/03/10 07:07:40;;;;;;;23.98;10.00;;;;;;;1.99;100.00;102830.44;10125067;28;20047;-68
2022/03/10 07:12:39;;;;;;;17.85;9.90;;;;;;;2.09;100.00;102835.44;10112723;28;20039;-67
2022/03/10 07:17:35;;;;;;;18.92;9.50;;;;;;;2.20;100.00;102844.75;10133223;28;20133;-67
2022/03/10 07:22:32;;;;;;;20.60;10.20;;;;;;;2.26;100.00;102842.06;10141053;28;20042;-68
2022/03/10 07:27:28;;;;;;;17.77;9.93;;;;;;;2.51;100.00;102850.31;10133772;28;20073;-67
2022/03/10 07:32:26;;;;;;;21.55;10.38;;;;;;;2.63;100.00;102839.69;10146885;28;20050;-67
2022/03/10 07:37:22;;;;;;;18.42;9.48;;;;;;;2.75;100.00;102834.47;10132378;28;20138;-67
2022/03/10 07:42:19;;;;;;;17.00;9.95;;;;;;;2.81;100.00;102838.16;10131968;28;20107;-67
2022/03/10 07:47:15;;;;;;;19.48;9.70;;;;;;;2.85;100.00;102834.00;10132161;28;20046;-68
2022/03/10 07:52:12;;;;;;;22.10;11.00;;;;;;;2.93;100.00;102836.47;10168920;28;20565;-68
2022/03/10 07:57:08;;;;;;;29.40;10.48;;;;;;;2.96;100.00;102852.25;10141406;28;20524;-68
2022/03/10 08:02:05;;;;;;;21.02;9.15;;;;;;;3.13;100.00;102848.03;10111473;28;20643;-67
2022/03/10 08:07:07;;;;;;;;;;;;;;;3.38;100.00;102844.53;10130166;28;20053;-68
2022/03/10 08:12:05;;;;;;;19.13;9.98;;;;;;;3.52;100.00;102843.41;10111528;28;19968;-67
2022/03/10 08:17:01;;;;;;;19.35;10.00;;;;;;;3.66;100.00;102836.03;10116797;28;20050;-68
2022/03/10 08:21:59;;;;;;;20.90;10.38;;;;;;;3.74;100.00;102837.66;10139269;28;20038;-68
2022/03/10 08:26:56;;;;;;;17.60;9.27;;;;;;;3.90;100.00;102837.13;10122701;28;20046;-68
2022/03/10 08:31:52;;;;;;;20.55;10.98;;;;;;;4.04;100.00;102820.72;10110089;28;20566;-68
2022/03/10 08:36:49;;;;;;;16.95;9.80;;;;;;;4.23;100.00;102814.31;10132044;28;20500;-68
2022/03/10 08:41:46;;;;;;;20.73;10.43;;;;;;;4.45;100.00;102817.41;10149835;28;20078;-68
2022/03/10 08:46:42;;;;;;;18.70;9.80;;;;;;;4.66;100.00;102807.19;10128629;28;20078;-68
2022/03/10 08:51:39;;;;;;;19.20;9.20;;;;;;;4.93;100.00;102810.41;10149953;28;20654;-68
2022/03/10 08:56:36;;;;;;;16.38;8.88;;;;;;;5.18;100.00;102805.66;10138750;28;20182;-67
2022/03/10 09:01:32;;;;;;;16.40;9.05;;;;;;;5.48;100.00;102815.66;10143245;28;20050;-68
2022/03/10 09:06:29;;;;;;;16.10;9.57;;;;;;;5.80;100.00;102809.94;10121262;28;20038;-68
2022/03/10 09:11:26;;;;;;;18.70;9.25;;;;;;;6.08;100.00;102801.97;10109733;28;20078;-68
2022/03/10 09:16:22;;;;;;;14.73;7.90;;;;;;;6.39;100.00;102809.97;10117260;28;20051;-68
2022/03/10 09:21:19;;;;;;;16.63;8.40;;;;;;;6.61;99.01;102797.38;10109606;28;20050;-68
2022/03/10 09:26:17;;;;;;;20.52;9.23;;;;;;;6.87;99.20;102787.88;10133465;28;20054;-67
2022/03/10 09:31:17;;;;;;;15.77;8.93;;;;;;;7.09;100.00;102787.19;10151180;28;20141;-68
2022/03/10 09:36:14;;;;;;;14.35;7.47;;;;;;;7.27;95.87;102776.09;10137662;28;20094;-68
2022/03/10 09:41:12;;;;;;;18.27;7.97;;;;;;;7.52;91.13;102780.31;10115918;28;20440;-68
2022/03/10 09:46:09;;;;;;;14.10;8.35;;;;;;;7.64;88.17;102777.53;10134818;28;20728;-67
2022/03/10 09:51:06;;;;;;;14.10;8.05;;;;;;;7.96;86.84;102780.47;10118418;28;21022;-68
2022/03/10 09:56:04;;;;;;;14.93;7.85;;;;;;;8.16;80.54;102775.31;10131130;28;20078;-68
2022/03/10 10:01:01;;;;;;;12.43;7.28;;;;;;;8.33;80.75;102788.06;10139929;28;20575;-68
2022/03/10 10:06:02;;;;;;;12.52;6.90;;;;;;;8.62;79.07;102778.66;10128975;28;20046;-68
2022/03/10 10:11:00;;;;;;;13.90;8.65;;;;;;;8.89;74.20;102782.50;10144426;28;20382;-68
2022/03/10 10:15:58;;;;;;;14.02;7.95;;;;;;;9.23;70.54;102783.16;10142881;28;20105;-68
2022/03/10 10:20:55;;;;;;;14.95;7.90;;;;;;;9.50;67.62;102782.31;10114967;28;20758;-68
2022/03/10 10:25:57;;;;;;;15.15;8.02;;;;;;;9.85;67.33;102779.84;10131497;28;20614;-68
2022/03/10 10:31:00;;;;;;;14.63;7.68;;;;;;;10.12;62.27;102778.94;10153670;28;20073;-68
2022/03/10 10:36:27;;;;;;;14.95;8.02;;;;;;;10.46;60.44;102778.59;10135473;28;20457;-68
2022/03/10 10:41:29;;;;;;;16.70;8.80;;;;;;;10.66;58.11;102778.69;10139561;28;20514;-67
2022/03/10 10:46:33;;;;;;;14.33;8.33;;;;;;;10.64;55.96;102775.38;10133028;28;20053;-68
2022/03/10 10:51:33;;;;;;;17.92;9.38;;;;;;;10.44;56.70;102772.56;10112965;28;20049;-68
2022/03/10 10:56:30;;;;;;;12.52;7.32;;;;;;;10.16;55.13;102768.28;10130885;28;20081;-68
2022/03/10 11:01:30;;;;;;;14.98;8.10;;;;;;;10.23;54.31;102786.09;10147059;28;20562;-68
2022/03/10 11:06:27;;;;;;;13.13;7.50;;;;;;;10.31;55.09;102766.50;10128798;28;20134;-68
2022/03/10 11:11:24;;;;;;;15.40;8.13;;;;;;;10.83;54.90;102766.69;10143652;28;20078;-68
2022/03/10 11:16:21;;;;;;;14.75;7.60;;;;;;;11.23;51.89;102762.38;10139102;28;20104;-68
2022/03/10 11:21:29;;;;;;;15.23;8.20;;;;;;;11.48;52.14;102759.66;10151576;28;20043;-68
2022/03/10 11:26:55;;;;;;;13.52;8.25;;;;;;;11.61;51.22;102743.78;10129204;28;20039;-68
2022/03/10 11:31:55;;;;;;;13.57;7.78;;;;;;;11.67;49.87;102759.91;10108081;28;20137;-68
2022/03/10 11:36:52;;;;;;;12.25;7.13;;;;;;;11.73;48.88;102753.34;10136942;28;20105;-68
2022/03/10 11:41:53;;;;;;;14.20;7.25;;;;;;;11.98;48.62;102752.50;10140331;28;20092;-68
2022/03/10 11:46:57;;;;;;;15.57;7.95;;;;;;;12.32;47.68;102754.63;10130670;28;20219;-68
2022/03/10 11:51:56;;;;;;;13.20;7.93;;;;;;;12.64;45.45;102750.63;10111282;28;20046;-68
2022/03/10 11:56:54;;;;;;;16.33;8.05;;;;;;;12.66;43.92;102737.44;10132297;28;20496;-68
2022/03/10 12:01:53;;;;;;;13.18;7.97;;;;;;;12.59;43.58;102737.75;10163859;28;20097;-68
2022/03/10 12:06:57;;;;;;;13.65;7.78;;;;;;;12.74;41.96;102723.13;10146331;28;20058;-68
2022/03/10 12:11:54;;;;;;;15.88;8.43;;;;;;;13.33;42.22;102729.59;10150478;28;20535;-68
2022/03/10 12:16:51;;;;;;;12.10;7.53;;;;;;;13.82;40.25;102725.03;10125936;28;20140;-68
2022/03/10 12:21:48;;;;;;;12.88;8.02;;;;;;;14.39;38.12;102723.28;10110986;28;20111;-67
2022/03/10 12:26:47;;;;;;;12.18;8.07;;;;;;;15.42;37.75;102716.25;10138243;28;20051;-68
2022/03/10 12:31:44;;;;;;;13.73;8.13;;;;;;;16.19;36.08;102718.41;10124225;28;20050;-68
2022/03/10 12:36:51;;;;;;;13.30;8.07;;;;;;;16.96;35.45;102709.25;10132455;28;20424;-68
2022/03/10 12:41:50;;;;;;;12.05;7.65;;;;;;;17.38;32.50;102704.38;10138296;28;20042;-68
2022/03/10 12:46:49;;;;;;;12.98;7.88;;;;;;;17.61;30.36;102696.00;10131201;28;20063;-68
2022/03/10 12:51:45;;;;;;;14.38;8.77;;;;;;;18.26;29.54;102689.78;10150104;28;20130;-67
2022/03/10 12:56:54;;;;;;;11.70;6.68;;;;;;;19.05;27.63;102682.34;10137235;28;20154;-68
2022/03/10 13:01:51;;;;;;;27.25;9.52;;;;;;;19.47;26.02;102677.03;10149626;28;20205;-68
2022/03/10 13:06:48;;;;;;;11.75;7.18;;;;;;;19.20;23.67;102675.47;10133477;28;20137;-68
2022/03/10 13:11:45;;;;;;;10.73;7.03;;;;;;;19.31;23.72;102667.63;10148722;28;20093;-68
2022/03/10 13:16:42;;;;;;;11.18;6.85;;;;;;;19.92;24.13;102665.44;10136628;28;20046;-69
2022/03/10 13:21:39;;;;;;;13.48;7.30;;;;;;;20.00;21.96;102666.53;10117340;28;20074;-68
2022/03/10 13:26:35;;;;;;;14.23;6.63;;;;;;;19.12;21.14;102677.13;10119529;28;20093;-68
2022/03/10 13:31:32;;;;;;;13.10;6.90;;;;;;;19.62;21.14;102663.75;10116150;28;20100;-68
2022/03/10 13:36:29;;;;;;;11.48;7.05;;;;;;;19.51;21.98;102655.78;10130764;28;20043;-68
2022/03/10 13:41:25;;;;;;;11.15;6.68;;;;;;;19.13;21.38;102651.00;10150475;28;20078;-68
2022/03/10 13:46:23;;;;;;;12.10;7.28;;;;;;;19.23;22.29;102654.56;10133625;28;20076;-68
2022/03/10 13:51:22;;;;;;;13.38;7.43;;;;;;;18.86;23.04;102663.28;10116052;28;20385;-68
2022/03/10 13:56:27;;;;;;;14.20;7.78;;;;;;;19.39;22.87;102647.34;10132791;28;20141;-68
2022/03/10 14:01:26;;;;;;;11.52;7.10;;;;;;;19.25;22.64;102643.97;10145027;28;20207;-68
2022/03/10 14:06:23;;;;;;;13.55;8.05;;;;;;;19.65;23.57;102649.22;10131239;28;20066;-68
2022/03/10 14:11:27;;;;;;;14.68;8.75;;;;;;;19.19;24.17;102648.06;10115126;28;20050;-68
2022/03/10 14:16:26;;;;;;;13.25;8.10;;;;;;;19.68;23.26;102648.53;10125855;28;20086;-68
2022/03/10 14:21:29;;;;;;;14.38;9.23;;;;;;;19.33;24.25;102643.13;10129126;28;20504;-68
2022/03/10 14:26:36;;;;;;;14.77;8.32;;;;;;;19.39;25.52;102641.00;10132443;28;20567;-68
2022/03/10 14:31:32;;;;;;;13.93;8.73;;;;;;;19.57;25.13;102637.00;10114469;28;20683;-68
2022/03/10 14:36:29;;;;;;;13.68;8.55;;;;;;;19.51;25.48;102632.78;10113185;28;20042;-68
2022/03/10 14:41:30;;;;;;;14.43;8.48;;;;;;;18.86;24.96;102634.75;10113391;28;20051;-68
2022/03/10 14:46:28;;;;;;;12.98;7.85;;;;;;;19.25;26.99;102625.38;10131537;28;20042;-69
2022/03/10 14:51:25;;;;;;;14.52;8.50;;;;;;;18.94;26.05;102622.84;10113528;28;20047;-69
2022/03/10 14:56:21;;;;;;;13.57;7.55;;;;;;;18.74;25.61;102615.19;10126870;28;20092;-69
2022/03/10 15:01:18;;;;;;;11.23;6.88;;;;;;;18.61;25.49;102606.72;10151200;28;20054;-68
2022/03/10 15:06:16;;;;;;;12.60;7.38;;;;;;;18.27;26.93;102608.34;10125603;28;20042;-68
2022/03/10 15:11:14;;;;;;;11.50;6.75;;;;;;;19.02;26.60;102593.47;10133589;28;20711;-68
2022/03/10 15:16:10;;;;;;;14.55;6.93;;;;;;;18.87;25.44;102592.03;10124469;28;20093;-68
2022/03/10 15:21:12;;;;;;;9.98;6.13;;;;;;;18.16;25.71;102595.94;10111360;28;20050;-68
2022/03/10 15:26:12;;;;;;;10.90;5.45;;;;;;;18.18;25.64;102590.91;10131290;28;20042;-68
2022/03/10 15:31:11;;;;;;;10.93;5.22;;;;;;;16.92;27.38;102589.47;10114157;28;20057;-68
2022/03/10 15:36:12;;;;;;;8.17;5.10;;;;;;;16.43;28.32;102591.19;10127646;28;20043;-68
2022/03/10 15:41:09;;;;;;;9.27;4.85;;;;;;;15.69;30.87;102589.47;10140102;28;20063;-68
2022/03/10 15:46:05;;;;;;;10.82;5.20;;;;;;;15.59;31.23;102589.66;10121663;28;20050;-68
2022/03/10 15:51:02;;;;;;;10.63;6.03;;;;;;;15.54;31.64;102587.00;10113708;28;20046;-67
2022/03/10 15:55:59;;;;;;;11.60;5.75;;;;;;;15.48;33.99;102590.97;10125693;28;20040;-68
2022/03/10 16:00:56;;;;;;;11.25;5.78;;;;;;;15.70;34.49;102584.75;10133010;28;20105;-68
2022/03/10 16:05:53;;;;;;;13.48;6.20;;;;;;;15.89;34.76;102582.72;10125321;28;20513;-67
2022/03/10 16:10:49;;;;;;;12.98;6.63;;;;;;;16.39;34.62;102579.13;10130565;28;20134;-68
2022/03/10 16:15:46;;;;;;;11.82;6.45;;;;;;;16.50;35.59;102580.53;10119399;28;20583;-67
2022/03/10 16:20:42;;;;;;;11.48;6.13;;;;;;;16.23;36.42;102586.13;10109537;28;20125;-68
2022/03/10 16:25:39;;;;;;;11.65;6.53;;;;;;;15.71;36.69;102587.25;10130427;28;20665;-67
2022/03/10 16:30:36;;;;;;;19.20;7.85;;;;;;;14.92;39.24;102588.16;10118796;28;20551;-67
2022/03/10 16:35:32;;;;;;;11.65;6.95;;;;;;;14.48;41.87;102586.63;10136594;28;20070;-68
2022/03/10 16:40:29;;;;;;;13.80;7.32;;;;;;;13.83;44.87;102586.44;10111868;28;20521;-67
2022/03/10 16:45:25;;;;;;;12.90;8.20;;;;;;;13.27;49.86;102587.88;10125611;28;20460;-67
2022/03/10 16:50:23;;;;;;;14.73;8.80;;;;;;;13.06;51.50;102587.25;10124343;28;20627;-67
2022/03/10 16:55:20;;;;;;;18.75;9.23;;;;;;;12.59;57.03;102591.50;10130607;28;20798;-67
2022/03/10 17:00:18;;;;;;;16.58;8.10;;;;;;;12.41;58.42;102593.78;10132634;28;20078;-67
2022/03/10 17:05:14;;;;;;;14.65;9.00;;;;;;;12.04;62.10;102588.81;10129738;28;20081;-67
2022/03/10 17:10:11;;;;;;;15.88;8.55;;;;;;;11.97;64.49;102593.78;10124338;28;20424;-68
2022/03/10 17:15:08;;;;;;;15.80;8.60;;;;;;;11.80;67.11;102594.09;10121549;28;20097;-68
2022/03/10 17:20:04;;;;;;;19.13;10.27;;;;;;;11.27;72.14;102596.44;10152751;28;20050;-67
2022/03/10 17:25:01;;;;;;;15.60;8.85;;;;;;;11.08;75.21;102605.22;10126355;28;20146;-66
2022/03/10 17:29:58;;;;;;;14.63;9.43;;;;;;;11.30;74.14;102598.63;10150152;28;20054;-66
2022/03/10 17:34:55;;;;;;;15.48;8.93;;;;;;;10.92;77.26;102603.59;10149406;28;20567;-66
2022/03/10 17:39:51;;;;;;;18.17;9.45;;;;;;;10.79;77.60;102602.25;10149474;28;21275;-66
2022/03/10 17:44:48;;;;;;;17.08;9.75;;;;;;;10.44;82.49;102611.22;10141662;28;20069;-66
2022/03/10 17:49:44;;;;;;;18.35;10.18;;;;;;;10.56;81.58;102611.78;10124743;28;20158;-67
2022/03/10 17:54:41;;;;;;;18.55;10.25;;;;;;;10.26;83.43;102610.59;10113824;28;20137;-66
2022/03/10 17:59:37;;;;;;;18.95;11.65;;;;;;;10.28;83.19;102608.47;10121320;28;20043;-66
2022/03/10 18:04:37;;;;;;;18.02;10.80;;;;;;;10.05;85.78;102611.63;10115247;28;20047;-68
2022/03/10 18:09:33;;;;;;;19.52;11.30;;;;;;;10.16;84.93;102618.75;10141678;28;20558;-68
2022/03/10 18:14:30;;;;;;;20.45;12.45;;;;;;;9.85;87.38;102617.84;10141994;28;20389;-68
2022/03/10 18:19:26;;;;;;;21.00;13.40;;;;;;;10.07;84.31;102618.47;10138267;28;20054;-68
2022/03/10 18:24:23;;;;;;;23.48;13.98;;;;;;;9.65;88.43;102621.28;10137677;28;20467;-68
2022/03/10 18:29:20;;;;;;;22.08;12.13;;;;;;;9.53;89.08;102634.31;10140628;28;20042;-68
2022/03/10 18:34:17;;;;;;;20.02;13.27;;;;;;;9.52;89.12;102638.16;10135638;28;20038;-68
2022/03/10 18:39:13;;;;;;;23.77;12.65;;;;;;;9.61;88.27;102626.47;10140593;28;20138;-72
2022/03/10 18:44:10;;;;;;;19.38;12.20;;;;;;;9.30;91.59;102625.44;10140145;28;20042;-67
2022/03/10 18:49:07;;;;;;;20.73;13.15;;;;;;;9.19;91.72;102620.97;10124533;28;20124;-67
2022/03/10 18:54:06;;;;;;;19.30;12.45;;;;;;;8.97;91.04;102605.53;10125893;28;20054;-67
2022/03/10 18:59:03;;;;;;;21.23;13.25;;;;;;;8.76;92.86;102615.47;10134988;28;20602;-67
2022/03/10 19:03:59;;;;;;;20.73;12.93;;;;;;;8.75;91.20;102610.25;10130897;28;20507;-67
2022/03/10 19:08:56;;;;;;;21.60;13.65;;;;;;;8.58;92.50;102608.47;10147432;28;20101;-67
2022/03/10 19:13:53;;;;;;;20.10;12.43;;;;;;;8.25;95.19;102620.38;10138468;28;20057;-67
2022/03/10 19:18:49;;;;;;;19.10;13.02;;;;;;;8.46;91.75;102626.91;10128532;28;20132;-67
2022/03/10 19:23:46;;;;;;;19.52;13.05;;;;;;;8.48;90.58;102635.66;10126775;28;20050;-67
2022/03/10 19:28:49;;;;;;;22.05;13.98;;;;;;;8.06;91.95;102627.25;10443856;27;20647;-67
2022/03/10 19:33:45;;;;;;;21.88;13.40;;;;;;;7.92;93.75;102624.06;10424123;27;20039;-66
2022/03/10 19:38:46;;;;;;;22.50;13.70;;;;;;;8.04;92.36;102613.88;10423305;27;20108;-66
2022/03/10 19:43:46;;;;;;;21.85;13.80;;;;;;;7.96;94.12;102622.47;10426820;27;20108;-66
2022/03/10 19:48:43;;;;;;;23.63;14.13;;;;;;;7.73;94.86;102613.50;10429837;27;20043;-66
2022/03/10 19:53:40;;;;;;;23.48;13.75;;;;;;;7.71;93.75;102615.63;10422913;27;20123;-66
2022/03/10 19:58:36;;;;;;;19.88;13.70;;;;;;;7.16;99.39;102616.47;10425733;27;20051;-66
2022/03/10 20:03:33;;;;;;;21.05;13.77;;;;;;;7.51;97.65;102620.78;10413780;27;20044;-66
2022/03/10 20:08:30;;;;;;;22.17;13.93;;;;;;;7.33;100.00;102620.00;10403206;27;20047;-66
2022/03/10 20:13:33;;;;;;;20.95;14.63;;;;;;;7.37;99.61;102632.03;10428749;27;20477;-66
2022/03/10 20:18:30;;;;;;;20.50;13.88;;;;;;;7.34;100.00;102637.97;10402791;27;20048;-66
2022/03/10 20:23:26;;;;;;;20.90;14.02;;;;;;;7.27;100.00;102631.88;10393322;27;20071;-66
2022/03/10 20:28:24;;;;;;;24.42;14.57;;;;;;;7.12;100.00;102623.47;10422041;27;20105;-66
2022/03/10 20:33:21;;;;;;;23.38;14.70;;;;;;;7.16;99.15;102624.63;10390666;27;20048;-67
2022/03/10 20:38:17;;;;;;;22.20;13.98;;;;;;;6.90;100.00;102626.13;10393543;27;20500;-67
2022/03/10 20:43:14;;;;;;;20.33;14.30;;;;;;;7.11;97.49;102624.56;10384675;27;20143;-66
2022/03/10 20:48:13;;;;;;;20.80;14.80;;;;;;;7.11;96.54;102621.84;10365938;27;20123;-66
2022/03/10 20:53:11;;;;;;;22.25;14.10;;;;;;;6.86;98.89;102620.34;10387082;27;20043;-68
2022/03/10 20:58:08;;;;;;;22.73;14.68;;;;;;;6.80;97.26;102615.91;10384689;27;20097;-69
2022/03/10 21:03:05;;;;;;;26.10;14.80;;;;;;;6.58;99.74;102618.50;10375600;27;20091;-66
2022/03/10 21:08:01;;;;;;;20.77;13.45;;;;;;;6.58;97.61;102623.09;10398876;27;20051;-68
2022/03/10 21:13:00;;;;;;;20.98;15.27;;;;;;;6.56;98.38;102614.38;10389082;27;20461;-66
2022/03/10 21:17:56;;;;;;;21.10;12.38;;;;;;;6.40;98.29;102615.97;10388183;27;20112;-67
2022/03/10 21:22:53;;;;;;;18.90;12.65;;;;;;;6.43;96.86;102621.75;10385395;27;20047;-67
2022/03/10 21:27:49;;;;;;;23.67;12.75;;;;;;;6.23;100.00;102615.94;10387215;27;20126;-68
2022/03/10 21:32:46;;;;;;;21.17;13.43;;;;;;;6.07;100.00;102618.34;10397308;27;20043;-68
2022/03/10 21:37:42;;;;;;;19.60;12.90;;;;;;;6.02;97.47;102615.53;10409297;27;20040;-68
2022/03/10 21:42:39;;;;;;;17.10;12.10;;;;;;;6.04;96.54;102607.16;10368836;28;20131;-67
2022/03/10 21:47:36;;;;;;;18.75;11.98;;;;;;;5.96;93.11;102600.19;10402981;27;20040;-68
2022/03/10 21:52:32;;;;;;;20.13;12.07;;;;;;;5.91;91.24;102597.34;10377027;28;20493;-66
2022/03/10 21:57:29;;;;;;;19.27;10.73;;;;;;;5.78;91.29;102597.59;10395310;27;20067;-66
2022/03/10 22:02:25;;;;;;;17.60;10.57;;;;;;;5.68;89.54;102588.19;10395418;27;20539;-66
2022/03/10 22:07:22;;;;;;;15.38;9.82;;;;;;;5.65;86.06;102588.66;10402385;27;20079;-66
2022/03/10 22:12:19;;;;;;;14.68;9.88;;;;;;;5.59;85.60;102592.34;10395578;28;20191;-65
2022/03/10 22:17:15;;;;;;;15.32;10.00;;;;;;;5.43;85.63;102585.75;10395406;27;20097;-66
2022/03/10 22:22:12;;;;;;;18.90;10.75;;;;;;;5.43;84.75;102580.34;10362039;27;20056;-66
2022/03/10 22:27:08;;;;;;;18.00;9.65;;;;;;;5.35;82.79;102583.38;10412396;27;20108;-65
2022/03/10 22:32:05;;;;;;;16.45;10.55;;;;;;;5.23;83.42;102583.41;10385205;27;20097;-65
2022/03/10 22:37:02;;;;;;;14.02;9.13;;;;;;;5.26;81.30;102579.38;10402727;27;20529;-67